sensor_id;sensor_type;location;lat;lon;timestamp;temperature;humidity
45042;DHT22;30779;52.096;4.410;2022-07-12T00:02:13;17.30;99.90
45042;DHT22;30779;52.096;4.410;2022-07-12T00:05:14;17.20;99.90
45042;DHT22;30779;52.096;4.410;2022-07-12T00:08:15;17.10;99.90
45042;DHT22;30779;52.096;4.410;2022-07-12T00:11:15;17.20;99.90
45042;DHT22;30779;52.096;4.410;2022-07-12T00:14:16;17.10;99.90
45042;DHT22;30779;52.096;4.410;2022-07-12T00:17:17;17.10;99.90
45042;DHT22;30779;52.096;4.410;2022-07-12T00:20:17;17.10;99.90
45042;DHT22;30779;52.096;4.410;2022-07-12T00:23:18;17.10;99.90
45042;DHT22;30779;52.096;4.410;2022-07-12T00:26:19;17.10;99.90
45042;DHT22;30779;52.096;4.410;2022-07-12T00:29:20;17.00;99.90
45042;DHT22;30779;52.096;4.410;2022-07-12T00:32:20;17.00;99.90
45042;DHT22;30779;52.096;4.410;2022-07-12T00:35:21;17.00;99.90
45042;DHT22;30779;52.096;4.410;2022-07-12T00:38:22;17.00;99.90
45042;DHT22;30779;52.096;4.410;2022-07-12T00:41:22;16.90;99.90
45042;DHT22;30779;52.096;4.410;2022-07-12T00:44:23;16.80;99.90
45042;DHT22;30779;52.096;4.410;2022-07-12T00:47:37;16.80;99.90
45042;DHT22;30779;52.096;4.410;2022-07-12T00:50:38;16.70;99.90
45042;DHT22;30779;52.096;4.410;2022-07-12T00:53:39;16.70;99.90
45042;DHT22;30779;52.096;4.410;2022-07-12T00:56:40;16.70;99.90
45042;DHT22;30779;52.096;4.410;2022-07-12T00:59:40;16.70;99.90
45042;DHT22;30779;52.096;4.410;2022-07-12T01:02:41;16.70;99.90
45042;DHT22;30779;52.096;4.410;2022-07-12T01:05:43;16.70;99.90
45042;DHT22;30779;52.096;4.410;2022-07-12T01:08:44;16.70;99.90
45042;DHT22;30779;52.096;4.410;2022-07-12T01:11:45;16.70;99.90
45042;DHT22;30779;52.096;4.410;2022-07-12T01:14:47;16.70;99.90
45042;DHT22;30779;52.096;4.410;2022-07-12T01:17:48;16.70;99.90
45042;DHT22;30779;52.096;4.410;2022-07-12T01:20:49;16.70;99.90
45042;DHT22;30779;52.096;4.410;2022-07-12T01:23:50;16.60;99.90
45042;DHT22;30779;52.096;4.410;2022-07-12T01:26:51;16.70;99.90
45042;DHT22;30779;52.096;4.410;2022-07-12T01:29:53;16.60;99.90
45042;DHT22;30779;52.096;4.410;2022-07-12T01:32:53;16.60;99.90
45042;DHT22;30779;52.096;4.410;2022-07-12T01:35:54;16.70;99.90
45042;DHT22;30779;52.096;4.410;2022-07-12T01:38:55;16.60;99.90
45042;DHT22;30779;52.096;4.410;2022-07-12T01:41:56;16.60;99.90
45042;DHT22;30779;52.096;4.410;2022-07-12T01:44:57;16.60;99.90
45042;DHT22;30779;52.096;4.410;2022-07-12T01:47:58;16.60;99.90
45042;DHT22;30779;52.096;4.410;2022-07-12T01:50:59;16.50;99.90
45042;DHT22;30779;52.096;4.410;2022-07-12T01:53:59;16.50;99.90
45042;DHT22;30779;52.096;4.410;2022-07-12T01:57:01;16.50;99.90
45042;DHT22;30779;52.096;4.410;2022-07-12T02:00:05;16.40;99.90
45042;DHT22;30779;52.096;4.410;2022-07-12T02:03:06;16.30;99.90
45042;DHT22;30779;52.096;4.410;2022-07-12T02:06:07;16.40;99.90
45042;DHT22;30779;52.096;4.410;2022-07-12T02:09:07;16.40;99.90
45042;DHT22;30779;52.096;4.410;2022-07-12T02:12:08;16.30;99.90
45042;DHT22;30779;52.096;4.410;2022-07-12T02:15:09;16.30;99.90
45042;DHT22;30779;52.096;4.410;2022-07-12T02:18:10;16.30;99.90
45042;DHT22;30779;52.096;4.410;2022-07-12T02:21:11;16.30;99.90
45042;DHT22;30779;52.096;4.410;2022-07-12T02:24:13;16.30;99.90
45042;DHT22;30779;52.096;4.410;2022-07-12T02:27:13;16.20;99.90
45042;DHT22;30779;52.096;4.410;2022-07-12T02:30:14;16.10;99.90
45042;DHT22;30779;52.096;4.410;2022-07-12T02:33:15;16.20;99.90
45042;DHT22;30779;52.096;4.410;2022-07-12T02:36:20;16.10;99.90
45042;DHT22;30779;52.096;4.410;2022-07-12T02:39:20;16.20;99.90
45042;DHT22;30779;52.096;4.410;2022-07-12T02:42:21;16.10;99.90
45042;DHT22;30779;52.096;4.410;2022-07-12T02:45:22;16.10;99.90
45042;DHT22;30779;52.096;4.410;2022-07-12T02:48:22;16.10;99.90
45042;DHT22;30779;52.096;4.410;2022-07-12T02:51:23;16.10;99.90
45042;DHT22;30779;52.096;4.410;2022-07-12T02:54:23;16.10;99.90
45042;DHT22;30779;52.096;4.410;2022-07-12T02:57:24;16.00;99.90
45042;DHT22;30779;52.096;4.410;2022-07-12T03:00:25;16.00;99.90
45042;DHT22;30779;52.096;4.410;2022-07-12T03:03:25;16.00;99.90
45042;DHT22;30779;52.096;4.410;2022-07-12T03:06:26;15.90;99.90
45042;DHT22;30779;52.096;4.410;2022-07-12T03:09:27;15.90;99.90
45042;DHT22;30779;52.096;4.410;2022-07-12T03:12:28;15.80;99.90
45042;DHT22;30779;52.096;4.410;2022-07-12T03:15:29;15.80;99.90
45042;DHT22;30779;52.096;4.410;2022-07-12T03:18:29;15.80;99.90
45042;DHT22;30779;52.096;4.410;2022-07-12T03:21:31;15.80;99.90
45042;DHT22;30779;52.096;4.410;2022-07-12T03:24:31;15.70;99.90
45042;DHT22;30779;52.096;4.410;2022-07-12T03:27:32;15.60;99.90
45042;DHT22;30779;52.096;4.410;2022-07-12T03:30:33;15.60;99.90
45042;DHT22;30779;52.096;4.410;2022-07-12T03:33:33;15.50;99.90
45042;DHT22;30779;52.096;4.410;2022-07-12T03:36:34;15.50;99.90
45042;DHT22;30779;52.096;4.410;2022-07-12T03:39:35;15.60;99.90
45042;DHT22;30779;52.096;4.410;2022-07-12T03:42:35;15.60;99.90
45042;DHT22;30779;52.096;4.410;2022-07-12T03:45:36;15.70;99.90
45042;DHT22;30779;52.096;4.410;2022-07-12T03:48:36;15.70;99.90
45042;DHT22;30779;52.096;4.410;2022-07-12T03:51:37;15.70;99.90
45042;DHT22;30779;52.096;4.410;2022-07-12T03:54:37;15.70;99.90
45042;DHT22;30779;52.096;4.410;2022-07-12T03:57:38;15.60;99.90
45042;DHT22;30779;52.096;4.410;2022-07-12T04:00:39;15.60;99.90
45042;DHT22;30779;52.096;4.410;2022-07-12T04:03:43;15.70;99.90
45042;DHT22;30779;52.096;4.410;2022-07-12T04:06:43;15.80;99.90
45042;DHT22;30779;52.096;4.410;2022-07-12T04:09:44;15.80;99.90
45042;DHT22;30779;52.096;4.410;2022-07-12T04:12:45;15.90;99.90
45042;DHT22;30779;52.096;4.410;2022-07-12T04:15:45;16.00;99.90
45042;DHT22;30779;52.096;4.410;2022-07-12T04:18:46;16.10;99.90
45042;DHT22;30779;52.096;4.410;2022-07-12T04:21:47;16.20;99.90
45042;DHT22;30779;52.096;4.410;2022-07-12T04:24:47;16.30;99.90
45042;DHT22;30779;52.096;4.410;2022-07-12T04:27:48;16.50;99.90
45042;DHT22;30779;52.096;4.410;2022-07-12T04:30:49;16.70;99.90
45042;DHT22;30779;52.096;4.410;2022-07-12T04:33:50;17.00;99.90
45042;DHT22;30779;52.096;4.410;2022-07-12T04:36:51;17.60;99.90
45042;DHT22;30779;52.096;4.410;2022-07-12T04:39:52;17.80;99.90
45042;DHT22;30779;52.096;4.410;2022-07-12T04:42:52;17.80;99.90
45042;DHT22;30779;52.096;4.410;2022-07-12T04:45:53;17.70;99.90
45042;DHT22;30779;52.096;4.410;2022-07-12T04:48:54;17.60;99.90
45042;DHT22;30779;52.096;4.410;2022-07-12T04:51:54;17.60;99.90
45042;DHT22;30779;52.096;4.410;2022-07-12T04:54:55;17.60;99.90
45042;DHT22;30779;52.096;4.410;2022-07-12T04:57:56;17.60;99.90
45042;DHT22;30779;52.096;4.410;2022-07-12T05:00:56;17.70;99.90
45042;DHT22;30779;52.096;4.410;2022-07-12T05:03:57;17.80;99.90
45042;DHT22;30779;52.096;4.410;2022-07-12T05:06:58;17.80;99.90
45042;DHT22;30779;52.096;4.410;2022-07-12T05:09:59;17.70;99.90
45042;DHT22;30779;52.096;4.410;2022-07-12T05:13:00;17.60;99.90
45042;DHT22;30779;52.096;4.410;2022-07-12T05:16:00;17.60;99.90
45042;DHT22;30779;52.096;4.410;2022-07-12T05:19:01;17.60;99.90
45042;DHT22;30779;52.096;4.410;2022-07-12T05:22:02;17.60;99.90
45042;DHT22;30779;52.096;4.410;2022-07-12T05:25:03;17.60;99.90
45042;DHT22;30779;52.096;4.410;2022-07-12T05:28:05;17.70;99.90
45042;DHT22;30779;52.096;4.410;2022-07-12T05:31:09;17.80;99.90
45042;DHT22;30779;52.096;4.410;2022-07-12T05:34:10;17.90;99.90
45042;DHT22;30779;52.096;4.410;2022-07-12T05:37:10;18.00;99.90
45042;DHT22;30779;52.096;4.410;2022-07-12T05:40:11;18.00;99.90
45042;DHT22;30779;52.096;4.410;2022-07-12T05:43:12;18.10;99.90
45042;DHT22;30779;52.096;4.410;2022-07-12T05:46:12;18.10;99.90
45042;DHT22;30779;52.096;4.410;2022-07-12T05:49:13;18.20;99.90
45042;DHT22;30779;52.096;4.410;2022-07-12T05:52:14;18.30;99.90
45042;DHT22;30779;52.096;4.410;2022-07-12T05:55:32;18.30;99.90
45042;DHT22;30779;52.096;4.410;2022-07-12T05:58:33;18.40;99.90
45042;DHT22;30779;52.096;4.410;2022-07-12T06:01:34;18.50;99.90
45042;DHT22;30779;52.096;4.410;2022-07-12T06:04:35;18.60;99.90
45042;DHT22;30779;52.096;4.410;2022-07-12T06:07:36;18.70;99.90
45042;DHT22;30779;52.096;4.410;2022-07-12T06:10:36;18.70;99.90
45042;DHT22;30779;52.096;4.410;2022-07-12T06:13:37;18.70;99.90
45042;DHT22;30779;52.096;4.410;2022-07-12T06:16:38;18.70;99.90
45042;DHT22;30779;52.096;4.410;2022-07-12T06:19:38;18.80;99.90
45042;DHT22;30779;52.096;4.410;2022-07-12T06:22:39;18.90;99.90
45042;DHT22;30779;52.096;4.410;2022-07-12T06:25:40;19.00;99.90
45042;DHT22;30779;52.096;4.410;2022-07-12T06:28:40;19.40;99.90
45042;DHT22;30779;52.096;4.410;2022-07-12T06:31:41;19.70;99.90
45042;DHT22;30779;52.096;4.410;2022-07-12T06:34:42;19.80;99.90
45042;DHT22;30779;52.096;4.410;2022-07-12T06:37:42;19.80;99.90
45042;DHT22;30779;52.096;4.410;2022-07-12T06:40:43;19.80;99.90
45042;DHT22;30779;52.096;4.410;2022-07-12T06:43:44;19.70;99.90
45042;DHT22;30779;52.096;4.410;2022-07-12T06:46:44;19.80;99.90
45042;DHT22;30779;52.096;4.410;2022-07-12T06:49:45;19.90;99.90
45042;DHT22;30779;52.096;4.410;2022-07-12T06:52:46;20.00;99.90
45042;DHT22;30779;52.096;4.410;2022-07-12T06:55:47;20.20;99.90
45042;DHT22;30779;52.096;4.410;2022-07-12T06:58:47;20.40;99.90
45042;DHT22;30779;52.096;4.410;2022-07-12T07:01:48;20.60;99.90
45042;DHT22;30779;52.096;4.410;2022-07-12T07:04:50;20.80;99.90
45042;DHT22;30779;52.096;4.410;2022-07-12T07:07:50;20.90;99.90
45042;DHT22;30779;52.096;4.410;2022-07-12T07:10:52;21.10;99.90
45042;DHT22;30779;52.096;4.410;2022-07-12T07:13:52;21.20;99.90
45042;DHT22;30779;52.096;4.410;2022-07-12T07:16:54;21.30;99.90
45042;DHT22;30779;52.096;4.410;2022-07-12T07:19:55;21.40;99.90
45042;DHT22;30779;52.096;4.410;2022-07-12T07:22:55;21.50;99.90
45042;DHT22;30779;52.096;4.410;2022-07-12T07:25:56;21.70;99.90
45042;DHT22;30779;52.096;4.410;2022-07-12T07:28:56;21.70;99.90
45042;DHT22;30779;52.096;4.410;2022-07-12T07:32:16;21.70;99.90
45042;DHT22;30779;52.096;4.410;2022-07-12T07:35:17;21.60;99.90
45042;DHT22;30779;52.096;4.410;2022-07-12T07:38:19;21.50;99.90
45042;DHT22;30779;52.096;4.410;2022-07-12T07:41:20;21.30;99.90
45042;DHT22;30779;52.096;4.410;2022-07-12T07:44:20;21.20;99.90
45042;DHT22;30779;52.096;4.410;2022-07-12T07:47:21;21.30;99.90
45042;DHT22;30779;52.096;4.410;2022-07-12T07:50:21;21.40;99.90
45042;DHT22;30779;52.096;4.410;2022-07-12T07:56:25;21.80;99.90
45042;DHT22;30779;52.096;4.410;2022-07-12T07:59:25;22.00;99.90
45042;DHT22;30779;52.096;4.410;2022-07-12T08:02:26;22.10;99.90
45042;DHT22;30779;52.096;4.410;2022-07-12T08:05:27;22.10;99.90
45042;DHT22;30779;52.096;4.410;2022-07-12T08:08:27;22.00;99.90
45042;DHT22;30779;52.096;4.410;2022-07-12T08:11:32;21.80;99.90
45042;DHT22;30779;52.096;4.410;2022-07-12T08:14:33;21.80;99.90
45042;DHT22;30779;52.096;4.410;2022-07-12T08:17:33;22.00;99.90
45042;DHT22;30779;52.096;4.410;2022-07-12T08:20:34;22.20;99.90
45042;DHT22;30779;52.096;4.410;2022-07-12T08:23:35;22.50;99.90
45042;DHT22;30779;52.096;4.410;2022-07-12T08:26:35;22.70;99.90
45042;DHT22;30779;52.096;4.410;2022-07-12T08:29:36;22.90;99.90
45042;DHT22;30779;52.096;4.410;2022-07-12T08:32:36;23.00;99.90
45042;DHT22;30779;52.096;4.410;2022-07-12T08:35:38;23.30;99.90
45042;DHT22;30779;52.096;4.410;2022-07-12T08:38:39;23.50;99.90
45042;DHT22;30779;52.096;4.410;2022-07-12T08:41:44;23.70;99.90
45042;DHT22;30779;52.096;4.410;2022-07-12T08:44:47;23.80;99.90
45042;DHT22;30779;52.096;4.410;2022-07-12T08:47:54;23.80;99.90
45042;DHT22;30779;52.096;4.410;2022-07-12T08:51:06;23.90;99.90
45042;DHT22;30779;52.096;4.410;2022-07-12T08:54:10;24.10;99.90
45042;DHT22;30779;52.096;4.410;2022-07-12T09:00:12;24.20;99.90
45042;DHT22;30779;52.096;4.410;2022-07-12T09:03:13;24.20;99.90
45042;DHT22;30779;52.096;4.410;2022-07-12T09:06:15;24.30;99.90
45042;DHT22;30779;52.096;4.410;2022-07-12T09:09:30;24.50;99.90
45042;DHT22;30779;52.096;4.410;2022-07-12T09:12:32;24.60;99.90
45042;DHT22;30779;52.096;4.410;2022-07-12T09:15:33;24.70;99.90
45042;DHT22;30779;52.096;4.410;2022-07-12T09:18:33;24.80;99.90
45042;DHT22;30779;52.096;4.410;2022-07-12T09:21:34;24.80;99.90
45042;DHT22;30779;52.096;4.410;2022-07-12T09:24:34;25.00;99.90
45042;DHT22;30779;52.096;4.410;2022-07-12T09:27:37;25.10;99.90
45042;DHT22;30779;52.096;4.410;2022-07-12T09:30:48;24.90;99.90
45042;DHT22;30779;52.096;4.410;2022-07-12T09:34:02;24.90;99.90
45042;DHT22;30779;52.096;4.410;2022-07-12T09:37:22;25.00;99.90
45042;DHT22;30779;52.096;4.410;2022-07-12T09:40:23;25.30;99.90
45042;DHT22;30779;52.096;4.410;2022-07-12T09:43:24;25.20;99.90
45042;DHT22;30779;52.096;4.410;2022-07-12T09:46:26;25.20;99.90
45042;DHT22;30779;52.096;4.410;2022-07-12T09:49:28;25.30;99.90
45042;DHT22;30779;52.096;4.410;2022-07-12T09:52:32;25.30;99.90
45042;DHT22;30779;52.096;4.410;2022-07-12T09:55:37;25.40;99.90
45042;DHT22;30779;52.096;4.410;2022-07-12T09:59:00;25.70;99.90
45042;DHT22;30779;52.096;4.410;2022-07-12T10:02:02;25.70;99.90
45042;DHT22;30779;52.096;4.410;2022-07-12T10:05:05;25.60;99.90
45042;DHT22;30779;52.096;4.410;2022-07-12T10:08:07;25.60;99.90
45042;DHT22;30779;52.096;4.410;2022-07-12T10:11:08;25.80;99.90
45042;DHT22;30779;52.096;4.410;2022-07-12T10:14:12;25.90;99.90
45042;DHT22;30779;52.096;4.410;2022-07-12T10:17:13;25.80;99.90
45042;DHT22;30779;52.096;4.410;2022-07-12T10:20:22;25.80;99.90
45042;DHT22;30779;52.096;4.410;2022-07-12T10:26:38;25.80;99.90
45042;DHT22;30779;52.096;4.410;2022-07-12T10:29:51;25.90;99.90
45042;DHT22;30779;52.096;4.410;2022-07-12T10:32:59;26.10;99.90
45042;DHT22;30779;52.096;4.410;2022-07-12T10:36:03;26.20;99.90
45042;DHT22;30779;52.096;4.410;2022-07-12T10:39:12;26.50;99.90
45042;DHT22;30779;52.096;4.410;2022-07-12T10:42:16;26.90;99.90
45042;DHT22;30779;52.096;4.410;2022-07-12T10:45:17;27.30;99.90
45042;DHT22;30779;52.096;4.410;2022-07-12T10:48:23;28.00;99.80
45042;DHT22;30779;52.096;4.410;2022-07-12T10:59:04;29.50;96.10
45042;DHT22;30779;52.096;4.410;2022-07-12T11:02:05;29.70;95.30
45042;DHT22;30779;52.096;4.410;2022-07-12T11:08:14;30.30;94.90
45042;DHT22;30779;52.096;4.410;2022-07-12T11:17:29;31.30;92.10
45042;DHT22;30779;52.096;4.410;2022-07-12T11:26:33;31.00;86.40
45042;DHT22;30779;52.096;4.410;2022-07-12T11:32:38;30.80;90.70
45042;DHT22;30779;52.096;4.410;2022-07-12T11:35:43;30.70;90.90
45042;DHT22;30779;52.096;4.410;2022-07-12T11:38:45;30.20;92.40
45042;DHT22;30779;52.096;4.410;2022-07-12T11:41:55;30.40;90.40
45042;DHT22;30779;52.096;4.410;2022-07-12T11:44:58;30.50;88.10
45042;DHT22;30779;52.096;4.410;2022-07-12T11:48:00;30.50;85.90
45042;DHT22;30779;52.096;4.410;2022-07-12T11:51:04;30.50;88.90
45042;DHT22;30779;52.096;4.410;2022-07-12T11:54:05;30.50;90.60
45042;DHT22;30779;52.096;4.410;2022-07-12T11:57:11;30.50;90.30
45042;DHT22;30779;52.096;4.410;2022-07-12T12:00:19;30.60;88.80
45042;DHT22;30779;52.096;4.410;2022-07-12T12:03:21;30.60;87.70
45042;DHT22;30779;52.096;4.410;2022-07-12T12:09:23;31.00;88.80
45042;DHT22;30779;52.096;4.410;2022-07-12T12:12:24;31.30;89.30
45042;DHT22;30779;52.096;4.410;2022-07-12T12:15:33;31.30;89.50
45042;DHT22;30779;52.096;4.410;2022-07-12T12:18:41;31.30;88.30
45042;DHT22;30779;52.096;4.410;2022-07-12T12:21:43;31.00;90.20
45042;DHT22;30779;52.096;4.410;2022-07-12T12:25:00;31.10;90.20
45042;DHT22;30779;52.096;4.410;2022-07-12T12:28:03;31.00;86.40
45042;DHT22;30779;52.096;4.410;2022-07-12T12:31:04;30.70;87.90
45042;DHT22;30779;52.096;4.410;2022-07-12T12:34:10;30.30;87.40
45042;DHT22;30779;52.096;4.410;2022-07-12T12:37:11;29.80;85.30
45042;DHT22;30779;52.096;4.410;2022-07-12T12:40:18;29.70;87.40
45042;DHT22;30779;52.096;4.410;2022-07-12T12:43:20;29.60;87.40
45042;DHT22;30779;52.096;4.410;2022-07-12T12:46:20;29.40;89.00
45042;DHT22;30779;52.096;4.410;2022-07-12T12:49:43;29.30;86.20
45042;DHT22;30779;52.096;4.410;2022-07-12T12:52:47;28.90;87.20
45042;DHT22;30779;52.096;4.410;2022-07-12T12:55:50;29.00;89.50
45042;DHT22;30779;52.096;4.410;2022-07-12T12:58:51;28.80;88.70
45042;DHT22;30779;52.096;4.410;2022-07-12T13:01:52;28.30;94.60
45042;DHT22;30779;52.096;4.410;2022-07-12T13:04:53;27.80;99.30
45042;DHT22;30779;52.096;4.410;2022-07-12T13:07:54;27.50;99.90
45042;DHT22;30779;52.096;4.410;2022-07-12T13:10:55;27.50;99.90
45042;DHT22;30779;52.096;4.410;2022-07-12T13:14:14;27.50;99.90
45042;DHT22;30779;52.096;4.410;2022-07-12T13:17:15;27.30;99.90
45042;DHT22;30779;52.096;4.410;2022-07-12T13:20:15;27.40;99.90
45042;DHT22;30779;52.096;4.410;2022-07-12T13:23:16;27.60;99.90
45042;DHT22;30779;52.096;4.410;2022-07-12T13:26:16;28.10;99.80
45042;DHT22;30779;52.096;4.410;2022-07-12T13:29:17;28.30;99.60
45042;DHT22;30779;52.096;4.410;2022-07-12T13:32:18;28.30;98.60
45042;DHT22;30779;52.096;4.410;2022-07-12T13:35:18;28.10;99.80
45042;DHT22;30779;52.096;4.410;2022-07-12T13:38:19;28.00;99.90
45042;DHT22;30779;52.096;4.410;2022-07-12T13:41:20;27.90;99.90
45042;DHT22;30779;52.096;4.410;2022-07-12T13:44:20;27.80;99.90
45042;DHT22;30779;52.096;4.410;2022-07-12T13:47:22;27.90;99.90
45042;DHT22;30779;52.096;4.410;2022-07-12T13:50:24;28.00;99.90
45042;DHT22;30779;52.096;4.410;2022-07-12T13:53:25;27.80;99.90
45042;DHT22;30779;52.096;4.410;2022-07-12T13:56:25;27.70;99.90
45042;DHT22;30779;52.096;4.410;2022-07-12T13:59:26;27.60;99.90
45042;DHT22;30779;52.096;4.410;2022-07-12T14:02:27;27.50;99.90
45042;DHT22;30779;52.096;4.410;2022-07-12T14:05:28;27.20;99.90
45042;DHT22;30779;52.096;4.410;2022-07-12T14:08:29;27.10;99.90
45042;DHT22;30779;52.096;4.410;2022-07-12T14:11:29;27.00;99.90
45042;DHT22;30779;52.096;4.410;2022-07-12T14:14:30;26.80;99.90
45042;DHT22;30779;52.096;4.410;2022-07-12T14:17:50;26.70;99.90
45042;DHT22;30779;52.096;4.410;2022-07-12T14:20:51;26.70;99.90
45042;DHT22;30779;52.096;4.410;2022-07-12T14:23:51;26.50;99.90
45042;DHT22;30779;52.096;4.410;2022-07-12T14:26:52;26.20;99.90
45042;DHT22;30779;52.096;4.410;2022-07-12T14:29:53;26.10;99.90
45042;DHT22;30779;52.096;4.410;2022-07-12T14:32:53;25.80;99.90
45042;DHT22;30779;52.096;4.410;2022-07-12T14:35:54;25.70;99.90
45042;DHT22;30779;52.096;4.410;2022-07-12T14:38:54;25.90;99.90
45042;DHT22;30779;52.096;4.410;2022-07-12T14:41:55;26.10;99.90
45042;DHT22;30779;52.096;4.410;2022-07-12T14:44:56;26.20;99.90
45042;DHT22;30779;52.096;4.410;2022-07-12T14:47:57;26.70;99.90
45042;DHT22;30779;52.096;4.410;2022-07-12T14:50:58;26.60;99.90
45042;DHT22;30779;52.096;4.410;2022-07-12T14:53:59;26.60;99.90
45042;DHT22;30779;52.096;4.410;2022-07-12T14:57:00;26.60;99.90
45042;DHT22;30779;52.096;4.410;2022-07-12T15:00:01;26.80;99.90
45042;DHT22;30779;52.096;4.410;2022-07-12T15:03:02;27.00;99.90
45042;DHT22;30779;52.096;4.410;2022-07-12T15:06:03;27.20;99.90
45042;DHT22;30779;52.096;4.410;2022-07-12T15:09:03;27.40;99.90
45042;DHT22;30779;52.096;4.410;2022-07-12T15:12:04;27.50;99.90
45042;DHT22;30779;52.096;4.410;2022-07-12T15:15:05;27.50;99.90
45042;DHT22;30779;52.096;4.410;2022-07-12T15:18:06;27.20;99.90
45042;DHT22;30779;52.096;4.410;2022-07-12T15:21:07;27.00;99.90
45042;DHT22;30779;52.096;4.410;2022-07-12T15:24:08;26.70;99.90
45042;DHT22;30779;52.096;4.410;2022-07-12T15:27:09;26.60;99.90
45042;DHT22;30779;52.096;4.410;2022-07-12T15:30:10;26.40;99.90
45042;DHT22;30779;52.096;4.410;2022-07-12T15:33:10;26.20;99.90
45042;DHT22;30779;52.096;4.410;2022-07-12T15:36:11;26.00;99.90
45042;DHT22;30779;52.096;4.410;2022-07-12T15:39:12;25.90;99.90
45042;DHT22;30779;52.096;4.410;2022-07-12T15:42:13;25.90;99.90
45042;DHT22;30779;52.096;4.410;2022-07-12T15:45:14;25.90;99.90
45042;DHT22;30779;52.096;4.410;2022-07-12T15:48:15;25.90;99.90
45042;DHT22;30779;52.096;4.410;2022-07-12T15:51:16;25.90;99.90
45042;DHT22;30779;52.096;4.410;2022-07-12T15:54:18;25.90;99.90
45042;DHT22;30779;52.096;4.410;2022-07-12T15:57:19;25.80;99.90
45042;DHT22;30779;52.096;4.410;2022-07-12T16:00:20;25.70;99.90
45042;DHT22;30779;52.096;4.410;2022-07-12T16:03:21;25.50;99.90
45042;DHT22;30779;52.096;4.410;2022-07-12T16:06:22;25.30;99.90
45042;DHT22;30779;52.096;4.410;2022-07-12T16:09:22;25.20;99.90
45042;DHT22;30779;52.096;4.410;2022-07-12T16:12:23;25.00;99.90
45042;DHT22;30779;52.096;4.410;2022-07-12T16:15:23;24.90;99.90
45042;DHT22;30779;52.096;4.410;2022-07-12T16:18:24;24.80;99.90
45042;DHT22;30779;52.096;4.410;2022-07-12T16:21:25;24.80;99.90
45042;DHT22;30779;52.096;4.410;2022-07-12T16:24:26;24.80;99.90
45042;DHT22;30779;52.096;4.410;2022-07-12T16:27:26;24.90;99.90
45042;DHT22;30779;52.096;4.410;2022-07-12T16:30:28;25.00;99.90
45042;DHT22;30779;52.096;4.410;2022-07-12T16:33:30;25.00;99.90
45042;DHT22;30779;52.096;4.410;2022-07-12T16:36:30;25.00;99.90
45042;DHT22;30779;52.096;4.410;2022-07-12T16:39:31;25.00;99.90
45042;DHT22;30779;52.096;4.410;2022-07-12T16:42:32;25.00;99.90
45042;DHT22;30779;52.096;4.410;2022-07-12T16:45:32;25.10;99.90
45042;DHT22;30779;52.096;4.410;2022-07-12T16:48:33;25.20;99.90
45042;DHT22;30779;52.096;4.410;2022-07-12T16:51:34;25.30;99.90
45042;DHT22;30779;52.096;4.410;2022-07-12T16:54:35;25.30;99.90
45042;DHT22;30779;52.096;4.410;2022-07-12T16:57:36;25.40;99.90
45042;DHT22;30779;52.096;4.410;2022-07-12T17:00:37;25.50;99.90
45042;DHT22;30779;52.096;4.410;2022-07-12T17:03:37;25.50;99.90
45042;DHT22;30779;52.096;4.410;2022-07-12T17:06:38;25.60;99.90
45042;DHT22;30779;52.096;4.410;2022-07-12T17:09:40;25.50;99.90
45042;DHT22;30779;52.096;4.410;2022-07-12T17:12:41;25.50;99.90
45042;DHT22;30779;52.096;4.410;2022-07-12T17:15:41;25.60;99.90
45042;DHT22;30779;52.096;4.410;2022-07-12T17:18:42;25.70;99.90
45042;DHT22;30779;52.096;4.410;2022-07-12T17:21:43;25.70;99.90
45042;DHT22;30779;52.096;4.410;2022-07-12T17:24:44;25.60;99.90
45042;DHT22;30779;52.096;4.410;2022-07-12T17:27:46;25.60;99.90
45042;DHT22;30779;52.096;4.410;2022-07-12T17:30:46;25.50;99.90
45042;DHT22;30779;52.096;4.410;2022-07-12T17:33:49;25.60;99.90
45042;DHT22;30779;52.096;4.410;2022-07-12T17:36:52;25.60;99.90
45042;DHT22;30779;52.096;4.410;2022-07-12T17:39:53;25.50;99.90
45042;DHT22;30779;52.096;4.410;2022-07-12T17:42:54;25.40;99.90
45042;DHT22;30779;52.096;4.410;2022-07-12T17:45:55;25.40;99.90
45042;DHT22;30779;52.096;4.410;2022-07-12T17:48:56;25.40;99.90
45042;DHT22;30779;52.096;4.410;2022-07-12T17:51:56;25.30;99.90
45042;DHT22;30779;52.096;4.410;2022-07-12T17:54:57;25.30;99.90
45042;DHT22;30779;52.096;4.410;2022-07-12T17:57:58;25.20;99.90
45042;DHT22;30779;52.096;4.410;2022-07-12T18:01:18;25.20;99.90
45042;DHT22;30779;52.096;4.410;2022-07-12T18:04:19;25.10;99.90
45042;DHT22;30779;52.096;4.410;2022-07-12T18:07:19;25.10;99.90
45042;DHT22;30779;52.096;4.410;2022-07-12T18:10:20;25.10;99.90
45042;DHT22;30779;52.096;4.410;2022-07-12T18:13:20;25.10;99.90
45042;DHT22;30779;52.096;4.410;2022-07-12T18:16:40;25.00;99.90
45042;DHT22;30779;52.096;4.410;2022-07-12T18:19:41;25.00;99.90
45042;DHT22;30779;52.096;4.410;2022-07-12T18:22:42;25.00;99.90
45042;DHT22;30779;52.096;4.410;2022-07-12T18:25:43;25.00;99.90
45042;DHT22;30779;52.096;4.410;2022-07-12T18:28:45;25.00;99.90
45042;DHT22;30779;52.096;4.410;2022-07-12T18:31:45;25.00;99.90
45042;DHT22;30779;52.096;4.410;2022-07-12T18:34:46;25.00;99.90
45042;DHT22;30779;52.096;4.410;2022-07-12T18:37:47;25.00;99.90
45042;DHT22;30779;52.096;4.410;2022-07-12T18:40:47;25.00;99.90
45042;DHT22;30779;52.096;4.410;2022-07-12T18:43:48;25.00;99.90
45042;DHT22;30779;52.096;4.410;2022-07-12T18:46:49;25.00;99.90
45042;DHT22;30779;52.096;4.410;2022-07-12T18:49:49;24.90;99.90
45042;DHT22;30779;52.096;4.410;2022-07-12T18:52:50;24.90;99.90
45042;DHT22;30779;52.096;4.410;2022-07-12T18:55:51;24.80;99.90
45042;DHT22;30779;52.096;4.410;2022-07-12T18:58:52;24.70;99.90
45042;DHT22;30779;52.096;4.410;2022-07-12T19:01:53;24.70;99.90
45042;DHT22;30779;52.096;4.410;2022-07-12T19:04:54;24.60;99.90
45042;DHT22;30779;52.096;4.410;2022-07-12T19:07:54;24.50;99.90
45042;DHT22;30779;52.096;4.410;2022-07-12T19:10:56;24.40;99.90
45042;DHT22;30779;52.096;4.410;2022-07-12T19:13:56;24.40;99.90
45042;DHT22;30779;52.096;4.410;2022-07-12T19:16:57;24.40;99.90
45042;DHT22;30779;52.096;4.410;2022-07-12T19:19:58;24.30;99.90
45042;DHT22;30779;52.096;4.410;2022-07-12T19:22:58;24.30;99.90
45042;DHT22;30779;52.096;4.410;2022-07-12T19:25:59;24.20;99.90
45042;DHT22;30779;52.096;4.410;2022-07-12T19:28:59;24.20;99.90
45042;DHT22;30779;52.096;4.410;2022-07-12T19:32:00;24.10;99.90
45042;DHT22;30779;52.096;4.410;2022-07-12T19:35:01;24.10;99.90
45042;DHT22;30779;52.096;4.410;2022-07-12T19:38:02;24.00;99.90
45042;DHT22;30779;52.096;4.410;2022-07-12T19:41:02;24.00;99.90
45042;DHT22;30779;52.096;4.410;2022-07-12T19:44:03;23.90;99.90
45042;DHT22;30779;52.096;4.410;2022-07-12T19:47:04;23.90;99.90